KSEG/SEG METAR and TAF weather

Enter ICAO airport designator
Station Type Date Time Source
KSEG METAR 2022/01/29 09:53 UTC NOAA

KSEG 290953Z AUTO 36013KT 10SM CLR M09/M16 A2997 RMK AO2 SLP155 T10941161


Station Type Date Time Source
KSEG Decoded METAR 2022/01/29 09:53 UTC NOAA

SELINSGROVE PENN VALLEY AIRPORT , PA, United States (KSEG) 40-49N 076-52W 134M
Jan 29, 2022 - 04:53 AM EST / 2022.01.29 0953 UTC
Wind: from the N (360 degrees) at 15 MPH (13 KT):0
Visibility: 10 mile(s):0
Sky conditions: clear
Temperature: 15.1 F (-9.4 C)
Windchill: 0 F (-18 C):1
Dew Point: 3.0 F (-16.1 C)
Relative Humidity: 58%
Pressure (altimeter): 29.97 in. Hg (1014 hPa)
ob: KSEG 290953Z AUTO 36013KT 10SM CLR M09/M16 A2997 RMK AO2 SLP155 T10941161
cycle: 10

Station Type Date Time Source
KSEG TAF UTC NOAA

Error!

Example: see airport list